createdAt,value
2022-08-14T00:02:27.105Z,24.91
2022-08-14T00:04:55.259Z,24.89
2022-08-14T00:07:22.516Z,24.91
2022-08-14T00:10:01.589Z,24.89
2022-08-14T00:12:42.119Z,24.84
2022-08-14T00:15:43.643Z,24.84
2022-08-14T00:18:14.842Z,24.82
2022-08-14T00:21:01.960Z,24.77
2022-08-14T00:23:30.887Z,24.77
2022-08-14T00:26:05.711Z,24.71
2022-08-14T00:28:36.991Z,24.62
2022-08-14T00:31:08.015Z,24.66
2022-08-14T00:33:50.815Z,24.60
2022-08-14T00:36:34.911Z,24.66
2022-08-14T00:39:18.295Z,24.64
2022-08-14T00:41:47.781Z,24.64
2022-08-14T00:44:26.575Z,24.64
2022-08-14T00:46:54.800Z,24.65
2022-08-14T00:49:26.175Z,24.73
2022-08-14T00:51:54.799Z,24.68
2022-08-14T00:54:24.236Z,24.62
2022-08-14T00:56:55.265Z,24.60
2022-08-14T00:59:28.536Z,24.59
2022-08-14T01:01:59.833Z,24.50
2022-08-14T01:04:51.458Z,24.48
2022-08-14T01:07:21.740Z,24.40
2022-08-14T01:10:01.796Z,24.39
2022-08-14T01:12:30.006Z,24.41
2022-08-14T01:15:02.054Z,24.47
2022-08-14T01:17:51.933Z,24.49
2022-08-14T01:20:41.754Z,24.46
2022-08-14T01:23:16.311Z,24.39
2022-08-14T01:25:51.514Z,24.39
2022-08-14T01:28:34.262Z,24.38
2022-08-14T01:31:19.012Z,24.32
2022-08-14T01:34:00.299Z,24.31
2022-08-14T01:36:39.284Z,24.26
2022-08-14T01:39:17.260Z,24.28
2022-08-14T01:41:49.992Z,24.26
2022-08-14T01:44:33.261Z,24.26
2022-08-14T01:47:12.139Z,24.25
2022-08-14T01:49:45.942Z,24.24
2022-08-14T01:52:34.067Z,24.23
2022-08-14T01:55:01.527Z,24.14
2022-08-14T01:57:49.196Z,24.04
2022-08-14T02:00:16.732Z,24.04
2022-08-14T02:02:46.586Z,24.01
2022-08-14T02:05:14.657Z,23.95
2022-08-14T02:07:55.418Z,23.96
2022-08-14T02:10:26.080Z,23.92
2022-08-14T02:12:54.439Z,23.90
2022-08-14T02:15:25.755Z,23.90
2022-08-14T02:17:53.560Z,23.65
2022-08-14T02:20:23.607Z,23.92
2022-08-14T02:22:54.815Z,23.96
2022-08-14T02:25:23.057Z,23.96
2022-08-14T02:28:24.452Z,23.94
2022-08-14T02:30:38.218Z,23.98
2022-08-14T02:33:07.559Z,23.92
2022-08-14T02:35:40.678Z,23.93
2022-08-14T02:38:11.695Z,23.95
2022-08-14T02:40:39.268Z,23.88
2022-08-14T02:43:08.718Z,23.79
2022-08-14T02:45:38.886Z,23.80
2022-08-14T02:49:03.568Z,23.76
2022-08-14T02:51:12.593Z,23.81
2022-08-14T02:53:46.461Z,23.80
2022-08-14T02:56:30.710Z,23.83
2022-08-14T02:59:07.843Z,23.85
2022-08-14T03:01:43.303Z,23.84
2022-08-14T03:04:14.078Z,23.88
2022-08-14T03:06:57.888Z,23.87
2022-08-14T03:09:41.842Z,23.80
2022-08-14T03:12:27.235Z,23.89
2022-08-14T03:15:09.100Z,23.91
2022-08-14T03:17:57.092Z,23.91
2022-08-14T03:20:28.651Z,23.88
2022-08-14T03:23:03.132Z,23.81
2022-08-14T03:25:33.620Z,23.75
2022-08-14T03:28:14.802Z,23.74
2022-08-14T03:30:59.893Z,23.75
2022-08-14T03:33:37.832Z,23.72
2022-08-14T03:37:51.400Z,23.67
2022-08-14T03:39:12.265Z,23.65
2022-08-14T03:41:45.431Z,23.61
2022-08-14T03:45:18.578Z,23.66
2022-08-14T03:47:03.069Z,23.65
2022-08-14T03:49:50.459Z,23.46
2022-08-14T03:52:55.572Z,23.67
2022-08-14T03:55:12.090Z,23.67
2022-08-14T03:57:40.931Z,23.70
2022-08-14T04:00:40.628Z,23.68
2022-08-14T04:03:02.562Z,23.76
2022-08-14T04:05:29.727Z,23.76
2022-08-14T04:08:22.999Z,23.75
2022-08-14T04:10:58.072Z,23.77
2022-08-14T04:13:27.697Z,23.69
2022-08-14T04:16:01.369Z,23.79
2022-08-14T04:18:30.520Z,23.80
2022-08-14T04:20:58.552Z,23.80
2022-08-14T04:23:29.936Z,23.79
2022-08-14T04:26:08.613Z,23.79
2022-08-14T04:29:07.590Z,23.81
2022-08-14T04:33:01.605Z,23.81
2022-08-14T04:34:20.913Z,23.66
2022-08-14T04:37:21.893Z,23.75
2022-08-14T04:40:12.464Z,23.80
2022-08-14T04:43:00.116Z,23.87
2022-08-14T04:45:36.338Z,23.93
2022-08-14T04:48:31.573Z,24.09
2022-08-14T04:51:05.268Z,24.31
2022-08-14T04:53:34.870Z,24.51
2022-08-14T04:56:10.852Z,24.68
2022-08-14T04:59:01.619Z,24.80
2022-08-14T05:01:29.313Z,24.98
2022-08-14T05:04:08.279Z,25.19
2022-08-14T05:06:38.958Z,25.37
2022-08-14T05:09:08.257Z,25.46
2022-08-14T05:11:42.395Z,25.63
2022-08-14T05:14:33.021Z,25.72
2022-08-14T05:17:01.519Z,25.94
2022-08-14T05:19:29.835Z,26.05
2022-08-14T05:22:16.433Z,26.10
2022-08-14T05:24:50.665Z,26.18
2022-08-14T05:27:22.880Z,26.26
2022-08-14T05:29:57.047Z,26.31
2022-08-14T05:32:27.431Z,26.21
2022-08-14T05:34:58.496Z,26.25
2022-08-14T05:37:28.291Z,26.28
2022-08-14T05:39:58.367Z,26.27
2022-08-14T05:42:46.703Z,26.28
2022-08-14T05:45:20.552Z,26.34
2022-08-14T05:47:50.817Z,26.38
2022-08-14T05:50:19.926Z,26.39
2022-08-14T05:53:02.329Z,26.29
2022-08-14T05:55:32.344Z,26.33
2022-08-14T05:58:09.333Z,26.08
2022-08-14T06:00:42.814Z,26.27
2022-08-14T06:03:17.018Z,26.26
2022-08-14T06:05:48.514Z,26.33
2022-08-14T06:08:41.107Z,26.31
2022-08-14T06:11:10.385Z,26.38
2022-08-14T06:13:44.893Z,26.39
2022-08-14T06:16:18.777Z,26.44
2022-08-14T06:18:52.518Z,26.49
2022-08-14T06:21:22.673Z,26.49
2022-08-14T06:23:50.563Z,26.56
2022-08-14T06:26:21.247Z,26.57
2022-08-14T06:28:52.164Z,26.65
2022-08-14T06:31:21.240Z,26.73
2022-08-14T06:35:04.236Z,26.80
2022-08-14T06:36:37.962Z,26.85
2022-08-14T06:39:09.839Z,26.82
2022-08-14T06:41:58.772Z,26.94
2022-08-14T06:44:32.482Z,26.96
2022-08-14T06:47:04.802Z,27.01
2022-08-14T06:49:40.019Z,27.08
2022-08-14T06:52:11.177Z,27.15
2022-08-14T06:54:43.569Z,27.21
2022-08-14T06:57:12.484Z,27.39
2022-08-14T06:59:41.026Z,27.46
2022-08-14T07:02:29.062Z,27.50
2022-08-14T07:05:21.041Z,27.58
2022-08-14T07:07:51.046Z,27.68
2022-08-14T07:10:18.172Z,27.76
2022-08-14T07:13:01.551Z,27.80
2022-08-14T07:15:39.916Z,27.84
2022-08-14T07:18:10.654Z,27.91
2022-08-14T07:20:39.248Z,27.89
2022-08-14T07:23:21.042Z,28.01
2022-08-14T07:25:51.689Z,28.05
2022-08-14T07:28:30.006Z,28.09
2022-08-14T07:31:04.744Z,28.11
2022-08-14T07:33:46.670Z,28.11
2022-08-14T07:36:30.241Z,28.12
2022-08-14T07:39:03.123Z,28.18
2022-08-14T07:41:35.587Z,28.27
2022-08-14T07:44:28.868Z,28.31
2022-08-14T07:46:51.151Z,28.35
2022-08-14T07:49:19.866Z,28.39
2022-08-14T07:51:49.627Z,28.41
2022-08-14T07:54:23.200Z,28.44
2022-08-14T07:57:06.312Z,28.44
2022-08-14T07:59:44.505Z,28.48
2022-08-14T08:02:19.297Z,28.47
2022-08-14T08:04:59.057Z,28.49
2022-08-14T08:07:31.421Z,28.49
2022-08-14T08:10:02.602Z,28.51
2022-08-14T08:12:32.383Z,28.57
2022-08-14T08:15:02.587Z,28.58
2022-08-14T08:17:42.332Z,28.64
2022-08-14T08:20:20.870Z,28.66
2022-08-14T08:22:55.574Z,28.61
2022-08-14T08:25:30.544Z,28.69
2022-08-14T08:28:25.375Z,28.73
2022-08-14T08:31:04.342Z,28.76
2022-08-14T08:33:37.033Z,28.81
2022-08-14T08:36:13.043Z,28.85
2022-08-14T08:39:18.308Z,28.91
2022-08-14T08:41:49.501Z,28.99
2022-08-14T08:44:32.342Z,28.99
2022-08-14T08:47:07.681Z,29.09
2022-08-14T08:49:43.044Z,29.14
2022-08-14T08:52:25.585Z,29.21
2022-08-14T08:54:58.634Z,29.31
2022-08-14T08:57:26.136Z,29.37
2022-08-14T08:59:55.024Z,29.39
2022-08-14T09:02:26.043Z,29.44
2022-08-14T09:05:04.245Z,29.42
2022-08-14T09:07:31.737Z,29.48
2022-08-14T09:10:00.546Z,29.53
2022-08-14T09:12:32.233Z,29.59
2022-08-14T09:15:11.942Z,29.71
2022-08-14T09:17:44.241Z,29.79
2022-08-14T09:20:14.079Z,29.85
2022-08-14T09:22:55.606Z,29.88
2022-08-14T09:26:00.021Z,29.90
2022-08-14T09:28:11.213Z,29.99
2022-08-14T09:30:45.738Z,29.97
2022-08-14T09:33:36.825Z,30.14
2022-08-14T09:36:53.894Z,30.27
2022-08-14T09:40:03.856Z,30.34
2022-08-14T09:43:22.709Z,30.32
2022-08-14T09:45:53.451Z,30.31
2022-08-14T09:48:29.376Z,30.35
2022-08-14T09:54:18.643Z,30.40
2022-08-14T09:56:46.333Z,30.47
2022-08-14T09:59:25.076Z,30.48
2022-08-14T10:01:53.436Z,30.47
2022-08-14T10:04:33.510Z,30.59
2022-08-14T10:07:05.308Z,30.58
2022-08-14T10:09:35.152Z,30.61
2022-08-14T10:12:04.743Z,30.55
2022-08-14T10:14:37.007Z,30.62
2022-08-14T10:17:08.601Z,30.61
2022-08-14T10:19:48.167Z,30.57
2022-08-14T10:23:12.709Z,30.56
2022-08-14T10:25:16.004Z,30.60
2022-08-14T10:27:51.061Z,30.58
2022-08-14T10:30:34.942Z,30.68
2022-08-14T10:33:01.991Z,30.68
2022-08-14T10:35:47.881Z,30.74
2022-08-14T10:38:31.538Z,30.79
2022-08-14T10:41:17.118Z,30.83
2022-08-14T10:44:04.996Z,30.86
2022-08-14T10:47:39.596Z,30.81
2022-08-14T10:49:28.655Z,30.82
2022-08-14T10:52:01.864Z,30.82
2022-08-14T10:54:40.227Z,30.85
2022-08-14T10:57:20.122Z,30.92
2022-08-14T11:00:12.609Z,31.00
2022-08-14T11:02:54.070Z,31.05
2022-08-14T11:05:27.018Z,31.08
2022-08-14T11:07:56.580Z,31.10
2022-08-14T11:10:39.930Z,31.11
2022-08-14T11:13:16.533Z,30.88
2022-08-14T11:15:46.383Z,31.09
2022-08-14T11:18:20.279Z,31.12
2022-08-14T11:21:00.703Z,31.20
2022-08-14T11:23:37.744Z,31.21
2022-08-14T11:26:08.035Z,31.21
2022-08-14T11:28:47.708Z,31.20
2022-08-14T11:31:23.547Z,31.23
2022-08-14T11:33:57.907Z,31.26
2022-08-14T11:37:02.919Z,31.12
2022-08-14T11:39:34.508Z,31.32
2022-08-14T11:42:57.878Z,31.27
2022-08-14T11:45:11.397Z,31.28
2022-08-14T11:48:13.160Z,31.29
2022-08-14T11:50:37.253Z,31.30
2022-08-14T11:53:08.634Z,31.32
2022-08-14T11:55:39.329Z,31.30
2022-08-14T11:58:12.014Z,31.30
2022-08-14T12:00:53.765Z,31.31
2022-08-14T12:03:38.104Z,31.32
2022-08-14T12:06:28.477Z,31.10
2022-08-14T12:09:01.878Z,31.35
2022-08-14T12:11:44.054Z,31.35
2022-08-14T12:14:34.925Z,31.37
2022-08-14T12:17:12.221Z,31.42
2022-08-14T12:20:03.010Z,31.44
2022-08-14T12:22:37.024Z,31.43
2022-08-14T12:25:20.229Z,31.46
2022-08-14T12:27:59.465Z,31.50
2022-08-14T12:30:45.298Z,31.51
2022-08-14T12:33:33.057Z,31.51
2022-08-14T12:36:10.048Z,31.52
2022-08-14T12:38:43.572Z,31.51
2022-08-14T12:41:21.259Z,31.54
2022-08-14T12:44:09.831Z,31.53
2022-08-14T12:46:43.328Z,31.48
2022-08-14T12:49:13.428Z,31.51
2022-08-14T12:51:56.633Z,31.55
2022-08-14T12:54:28.548Z,31.59
2022-08-14T12:57:42.132Z,31.66
2022-08-14T13:00:23.823Z,31.72
2022-08-14T13:02:56.580Z,31.67
2022-08-14T13:05:38.215Z,31.68
2022-08-14T13:08:10.646Z,31.68
2022-08-14T13:10:59.201Z,31.61
2022-08-14T13:13:34.737Z,31.63
2022-08-14T13:16:20.396Z,31.61
2022-08-14T13:18:58.348Z,31.61
2022-08-14T13:21:27.447Z,31.63
2022-08-14T13:23:56.788Z,31.66
2022-08-14T13:26:28.114Z,31.61
2022-08-14T13:29:02.020Z,31.72
2022-08-14T13:31:34.577Z,31.77
2022-08-14T13:34:03.344Z,31.72
2022-08-14T13:36:54.402Z,31.79
2022-08-14T13:39:23.310Z,31.75
2022-08-14T13:41:55.578Z,31.83
2022-08-14T13:44:27.567Z,31.78
2022-08-14T13:46:54.736Z,31.74
2022-08-14T13:49:23.913Z,31.72
2022-08-14T13:51:58.842Z,31.52
2022-08-14T13:54:32.749Z,31.73
2022-08-14T13:57:03.663Z,31.71
2022-08-14T13:59:38.173Z,31.65
2022-08-14T14:02:08.788Z,31.59
2022-08-14T14:04:43.299Z,31.55
2022-08-14T14:07:21.754Z,31.48
2022-08-14T14:09:55.199Z,31.42
2022-08-14T14:12:37.554Z,31.40
2022-08-14T14:15:12.655Z,31.34
2022-08-14T14:17:44.119Z,31.32
2022-08-14T14:20:34.246Z,31.29
2022-08-14T14:23:11.683Z,31.24
2022-08-14T14:25:46.041Z,31.20
2022-08-14T14:28:24.022Z,31.16
2022-08-14T14:30:57.316Z,31.20
2022-08-14T14:33:46.687Z,30.90
2022-08-14T14:36:26.632Z,31.16
2022-08-14T14:39:04.533Z,31.15
2022-08-14T14:41:44.080Z,31.11
2022-08-14T14:44:16.136Z,31.06
2022-08-14T14:46:50.139Z,31.04
2022-08-14T14:49:21.979Z,30.98
2022-08-14T14:51:52.387Z,30.94
2022-08-14T14:54:30.995Z,30.87
2022-08-14T14:57:09.296Z,30.80
2022-08-14T14:59:38.205Z,30.76
2022-08-14T15:02:09.094Z,30.67
2022-08-14T15:04:43.392Z,30.67
2022-08-14T15:07:12.556Z,30.64
2022-08-14T15:09:41.098Z,30.61
2022-08-14T15:12:34.191Z,30.57
2022-08-14T15:15:08.471Z,30.51
2022-08-14T15:17:41.692Z,30.46
2022-08-14T15:20:29.794Z,30.42
2022-08-14T15:23:11.679Z,30.39
2022-08-14T15:25:42.185Z,30.36
2022-08-14T15:28:12.714Z,30.36
2022-08-14T15:30:46.192Z,30.35
2022-08-14T15:34:13.435Z,30.13
2022-08-14T15:36:35.102Z,30.33
2022-08-14T15:39:07.127Z,30.38
2022-08-14T15:41:41.388Z,30.37
2022-08-14T15:44:18.847Z,30.41
2022-08-14T15:46:58.313Z,30.40
2022-08-14T15:49:34.827Z,30.47
2022-08-14T15:52:04.688Z,30.51
2022-08-14T15:54:34.230Z,30.48
2022-08-14T15:57:08.273Z,30.50
2022-08-14T15:59:56.436Z,30.50
2022-08-14T16:02:27.566Z,30.49
2022-08-14T16:04:56.431Z,30.39
2022-08-14T16:07:27.679Z,30.34
2022-08-14T16:10:18.625Z,30.23
2022-08-14T16:12:47.403Z,30.13
2022-08-14T16:15:16.990Z,30.14
2022-08-14T16:17:48.512Z,30.11
2022-08-14T16:20:42.445Z,30.07
2022-08-14T16:23:10.388Z,30.03
2022-08-14T16:25:43.792Z,29.99
2022-08-14T16:28:27.804Z,29.96
2022-08-14T16:30:56.230Z,29.89
2022-08-14T16:33:56.411Z,29.84
2022-08-14T16:36:31.570Z,29.81
2022-08-14T16:39:02.681Z,29.80
2022-08-14T16:41:30.875Z,29.77
2022-08-14T16:44:06.033Z,29.78
2022-08-14T16:46:57.147Z,29.76
2022-08-14T16:50:03.445Z,29.72
2022-08-14T16:52:25.794Z,29.67
2022-08-14T16:55:07.234Z,29.63
2022-08-14T16:57:47.475Z,29.60
2022-08-14T17:00:43.680Z,29.48
2022-08-14T17:03:36.881Z,29.49
2022-08-14T17:06:30.741Z,29.42
2022-08-14T17:08:57.505Z,29.37
2022-08-14T17:11:27.907Z,29.32
2022-08-14T17:14:00.591Z,29.26
2022-08-14T17:16:35.694Z,29.22
2022-08-14T17:19:05.547Z,29.22
2022-08-14T17:21:38.178Z,29.20
2022-08-14T17:24:57.594Z,29.20
2022-08-14T17:27:04.444Z,29.20
2022-08-14T17:29:56.152Z,29.15
2022-08-14T17:32:55.413Z,29.11
2022-08-14T17:35:38.993Z,29.17
2022-08-14T17:38:38.703Z,29.14
2022-08-14T17:41:27.030Z,29.09
2022-08-14T17:46:43.384Z,29.00
2022-08-14T17:49:15.296Z,28.94
2022-08-14T17:52:17.026Z,28.90
2022-08-14T17:54:52.632Z,28.85
2022-08-14T17:57:23.166Z,28.76
2022-08-14T17:59:52.861Z,28.66
2022-08-14T18:02:31.591Z,28.64
2022-08-14T18:05:03.052Z,28.60
2022-08-14T18:07:50.450Z,28.47
2022-08-14T18:10:52.660Z,28.46
2022-08-14T18:13:10.750Z,28.41
2022-08-14T18:15:44.996Z,28.31
2022-08-14T18:18:19.386Z,28.33
2022-08-14T18:21:42.736Z,28.28
2022-08-14T18:23:41.987Z,28.19
2022-08-14T18:26:37.020Z,28.19
2022-08-14T18:29:00.286Z,28.10
2022-08-14T18:31:41.930Z,28.07
2022-08-14T18:34:31.653Z,27.99
2022-08-14T18:37:16.880Z,27.86
2022-08-14T18:40:02.062Z,27.79
2022-08-14T18:42:34.574Z,27.77
2022-08-14T18:45:12.932Z,27.69
2022-08-14T18:50:32.383Z,27.46
2022-08-14T18:53:11.007Z,27.46
2022-08-14T18:55:47.661Z,27.36
2022-08-14T18:58:33.999Z,27.36
2022-08-14T19:01:04.438Z,27.28
2022-08-14T19:03:36.483Z,27.22
2022-08-14T19:06:08.881Z,27.11
2022-08-14T19:08:42.742Z,27.10
2022-08-14T19:11:32.034Z,27.05
2022-08-14T19:14:04.973Z,26.87
2022-08-14T19:16:42.809Z,26.94
2022-08-14T19:19:12.663Z,26.95
2022-08-14T19:21:57.327Z,26.93
2022-08-14T19:24:33.669Z,26.87
2022-08-14T19:27:26.136Z,26.80
2022-08-14T19:30:19.674Z,26.75
2022-08-14T19:32:52.295Z,26.71
2022-08-14T19:35:24.438Z,26.71
2022-08-14T19:37:56.981Z,26.67
2022-08-14T19:40:41.995Z,26.62
2022-08-14T19:43:55.484Z,26.59
2022-08-14T19:46:39.513Z,26.52
2022-08-14T19:49:00.338Z,26.44
2022-08-14T19:51:32.687Z,26.47
2022-08-14T19:54:13.507Z,26.45
2022-08-14T19:56:45.604Z,26.41
2022-08-14T19:59:19.244Z,26.42
2022-08-14T20:01:52.402Z,26.41
2022-08-14T20:04:45.805Z,26.46
2022-08-14T20:07:59.246Z,26.45
2022-08-14T20:11:03.117Z,26.44
2022-08-14T20:13:32.219Z,26.40
2022-08-14T20:16:12.534Z,26.21
2022-08-14T20:18:50.103Z,26.35
2022-08-14T20:21:18.641Z,26.29
2022-08-14T20:23:48.108Z,26.29
2022-08-14T20:26:31.768Z,26.21
2022-08-14T20:29:04.634Z,26.18
2022-08-14T20:31:36.461Z,26.16
2022-08-14T20:34:25.033Z,26.13
2022-08-14T20:37:26.241Z,26.10
2022-08-14T20:39:55.649Z,26.06
2022-08-14T20:42:43.649Z,25.98
2022-08-14T20:45:21.376Z,25.97
2022-08-14T20:48:07.445Z,25.93
2022-08-14T20:50:45.174Z,25.84
2022-08-14T20:53:36.013Z,25.84
2022-08-14T20:56:28.529Z,25.87
2022-08-14T20:58:58.097Z,25.79
2022-08-14T21:01:32.492Z,25.82
2022-08-14T21:04:05.072Z,25.80
2022-08-14T21:07:23.939Z,25.78
2022-08-14T21:10:03.248Z,25.76
2022-08-14T21:12:33.769Z,25.75
2022-08-14T21:15:11.069Z,25.75
2022-08-14T21:17:41.654Z,25.68
2022-08-14T21:20:25.918Z,25.70
2022-08-14T21:22:56.412Z,25.74
2022-08-14T21:25:23.736Z,25.73
2022-08-14T21:27:57.327Z,25.75
2022-08-14T21:30:51.364Z,25.70
2022-08-14T21:33:20.577Z,25.72
2022-08-14T21:35:54.762Z,25.70
2022-08-14T21:38:33.749Z,25.69
2022-08-14T21:41:41.323Z,25.67
2022-08-14T21:44:17.859Z,25.63
2022-08-14T21:46:56.277Z,25.56
2022-08-14T21:49:34.134Z,25.55
2022-08-14T21:52:51.280Z,25.60
2022-08-14T21:55:09.229Z,25.58
2022-08-14T21:58:03.842Z,25.56
2022-08-14T22:00:39.682Z,25.53
2022-08-14T22:03:19.138Z,25.54
2022-08-14T22:05:55.954Z,25.49
2022-08-14T22:08:26.777Z,25.48
2022-08-14T22:10:55.394Z,25.44
2022-08-14T22:13:26.651Z,25.36
2022-08-14T22:15:59.774Z,25.30
2022-08-14T22:18:30.105Z,25.30
2022-08-14T22:20:58.234Z,25.34
2022-08-14T22:23:26.497Z,25.31
2022-08-14T22:25:55.488Z,25.32
2022-08-14T22:28:33.030Z,25.30
2022-08-14T22:31:03.988Z,25.30
2022-08-14T22:33:40.295Z,25.28
2022-08-14T22:36:33.651Z,25.29
2022-08-14T22:39:03.043Z,25.25
2022-08-14T22:41:43.229Z,25.27
2022-08-14T22:44:20.935Z,25.22
2022-08-14T22:46:48.768Z,25.26
2022-08-14T22:50:31.284Z,25.26
2022-08-14T22:52:31.750Z,25.25
2022-08-14T22:55:05.885Z,25.23
2022-08-14T22:57:37.571Z,25.14
2022-08-14T23:00:25.350Z,25.09
2022-08-14T23:03:17.149Z,25.05
2022-08-14T23:05:52.769Z,24.94
2022-08-14T23:08:58.411Z,24.96
2022-08-14T23:11:12.248Z,24.92
2022-08-14T23:13:46.337Z,24.85
2022-08-14T23:16:20.023Z,24.86
2022-08-14T23:18:53.506Z,24.83
2022-08-14T23:21:24.247Z,24.79
2022-08-14T23:23:55.605Z,24.87
2022-08-14T23:26:48.148Z,24.88
2022-08-14T23:29:18.073Z,24.91
2022-08-14T23:31:45.225Z,24.89
2022-08-14T23:34:20.673Z,24.74
2022-08-14T23:36:56.633Z,24.84
2022-08-14T23:39:32.195Z,24.84
2022-08-14T23:42:06.182Z,24.82
2022-08-14T23:44:37.687Z,24.80
2022-08-14T23:47:25.653Z,24.77
2022-08-14T23:50:03.175Z,24.76
2022-08-14T23:52:50.187Z,24.74
2022-08-14T23:55:28.268Z,24.62
2022-08-14T23:57:58.973Z,24.63
